Time,TemperatureF,DewpointF,PressureIn,WindDirection,WindDirectionDegrees,WindSpeedMPH,WindSpeedGustMPH,Humidity,HourlyPrecipIn,Conditions,Clouds,dailyrainin,SoftwareType,DateUTC
2013-10-14 00:12:00,54.0,43.0,30.30,North,360,0.0,1.0,66,0.00,,,0.00,weatherlink.com 1.10,2013-10-14 05:12:00,
2013-10-14 00:27:00,54.0,42.0,30.30,North,360,0.0,2.0,65,0.00,,,0.00,weatherlink.com 1.10,2013-10-14 05:27:00,
2013-10-14 00:42:00,54.3,42.0,30.30,North,360,0.0,2.0,64,0.00,,,0.00,weatherlink.com 1.10,2013-10-14 05:42:00,
2013-10-14 00:57:00,54.1,42.0,30.30,North,360,0.0,2.0,64,0.00,,,0.00,weatherlink.com 1.10,2013-10-14 05:57:00,
2013-10-14 01:12:00,53.5,43.0,30.30,North,360,0.0,2.0,67,0.00,,,0.00,weatherlink.com 1.10,2013-10-14 06:12:00,
2013-10-14 01:27:00,52.3,42.0,30.30,North,360,0.0,0.0,68,0.00,,,0.00,weatherlink.com 1.10,2013-10-14 06:27:00,
2013-10-14 01:42:00,52.1,42.0,30.31,North,360,0.0,1.0,69,0.00,,,0.00,weatherlink.com 1.10,2013-10-14 06:42:00,
2013-10-14 01:57:00,51.4,42.0,30.30,North,360,0.0,1.0,71,0.00,,,0.00,weatherlink.com 1.10,2013-10-14 06:57:00,
2013-10-14 02:12:00,50.8,42.0,30.30,North,360,0.0,3.0,72,0.00,,,0.00,weatherlink.com 1.10,2013-10-14 07:12:00,
2013-10-14 02:27:00,51.5,42.0,30.30,North,360,2.0,4.0,70,0.00,,,0.00,weatherlink.com 1.10,2013-10-14 07:27:00,
2013-10-14 02:42:00,51.6,42.0,30.30,North,360,2.0,4.0,69,0.00,,,0.00,weatherlink.com 1.10,2013-10-14 07:42:00,
2013-10-14 02:57:00,50.9,42.0,30.30,North,360,1.0,2.0,71,0.00,,,0.00,weatherlink.com 1.10,2013-10-14 07:57:00,
2013-10-14 03:12:00,50.7,42.0,30.31,North,360,2.0,3.0,72,0.00,,,0.00,weatherlink.com 1.10,2013-10-14 08:12:00,
2013-10-14 03:27:00,50.9,42.0,30.32,North,360,0.0,3.0,72,0.00,,,0.00,weatherlink.com 1.10,2013-10-14 08:27:00,
2013-10-14 03:42:00,50.4,42.0,30.31,North,360,0.0,1.0,74,0.00,,,0.00,weatherlink.com 1.10,2013-10-14 08:42:00,
2013-10-14 03:57:00,50.0,42.0,30.31,North,360,3.0,4.0,75,0.00,,,0.00,weatherlink.com 1.10,2013-10-14 08:57:00,
2013-10-14 04:12:00,50.1,43.0,30.31,North,360,0.0,5.0,76,0.00,,,0.00,weatherlink.com 1.10,2013-10-14 09:12:00,
2013-10-14 04:27:00,49.4,43.0,30.30,North,360,0.0,1.0,78,0.00,,,0.00,weatherlink.com 1.10,2013-10-14 09:27:00,
2013-10-14 04:42:00,48.9,43.0,30.30,North,360,0.0,2.0,80,0.00,,,0.00,weatherlink.com 1.10,2013-10-14 09:42:00,
2013-10-14 04:57:00,48.7,43.0,30.30,North,360,0.0,4.0,81,0.00,,,0.00,weatherlink.com 1.10,2013-10-14 09:57:00,
2013-10-14 05:12:00,48.2,43.0,30.31,North,360,0.0,1.0,82,0.00,,,0.00,weatherlink.com 1.10,2013-10-14 10:12:00,
2013-10-14 05:27:00,48.0,43.0,30.31,North,360,0.0,1.0,82,0.00,,,0.00,weatherlink.com 1.10,2013-10-14 10:27:00,
2013-10-14 05:42:00,47.5,43.0,30.31,North,360,0.0,0.0,84,0.00,,,0.00,weatherlink.com 1.10,2013-10-14 10:42:00,
2013-10-14 05:57:00,47.0,43.0,30.30,North,360,0.0,0.0,85,0.00,,,0.00,weatherlink.com 1.10,2013-10-14 10:57:00,
2013-10-14 06:12:00,46.7,43.0,30.30,North,360,0.0,0.0,86,0.00,,,0.00,weatherlink.com 1.10,2013-10-14 11:12:00,
2013-10-14 06:27:00,46.5,43.0,30.30,North,360,0.0,2.0,87,0.00,,,0.00,weatherlink.com 1.10,2013-10-14 11:27:00,
2013-10-14 06:42:00,46.5,43.0,30.30,North,360,0.0,0.0,87,0.00,,,0.00,weatherlink.com 1.10,2013-10-14 11:42:00,
2013-10-14 06:57:00,46.7,43.0,30.30,North,360,0.0,1.0,88,0.00,,,0.00,weatherlink.com 1.10,2013-10-14 11:57:00,
2013-10-14 07:12:00,46.7,43.0,30.31,North,360,0.0,0.0,88,0.00,,,0.00,weatherlink.com 1.10,2013-10-14 12:12:00,
2013-10-14 07:27:00,47.5,44.0,30.31,North,360,0.0,3.0,86,0.00,,,0.00,weatherlink.com 1.10,2013-10-14 12:27:00,
2013-10-14 07:42:00,48.1,44.0,30.31,North,360,0.0,2.0,86,0.00,,,0.00,weatherlink.com 1.10,2013-10-14 12:42:00,
2013-10-14 07:57:00,48.5,45.0,30.31,North,360,0.0,2.0,86,0.00,,,0.00,weatherlink.com 1.10,2013-10-14 12:57:00,
2013-10-14 08:12:00,49.1,45.0,30.31,North,360,0.0,1.0,86,0.00,,,0.00,weatherlink.com 1.10,2013-10-14 13:12:00,
2013-10-14 08:27:00,49.8,46.0,30.31,North,360,0.0,2.0,85,0.00,,,0.00,weatherlink.com 1.10,2013-10-14 13:27:00,
2013-10-14 08:43:00,50.7,46.0,30.32,North,360,0.0,2.0,83,0.00,,,0.00,weatherlink.com 1.10,2013-10-14 13:43:00,
2013-10-14 08:58:00,52.2,47.0,30.30,North,360,1.0,3.0,82,0.00,,,0.00,weatherlink.com 1.10,2013-10-14 13:58:00,
2013-10-14 09:13:00,54.0,47.0,30.30,ENE,68,1.0,4.0,78,0.00,,,0.00,weatherlink.com 1.10,2013-10-14 14:13:00,
2013-10-14 09:28:00,54.8,48.0,30.30,NE,44,0.0,3.0,77,0.00,,,0.00,weatherlink.com 1.10,2013-10-14 14:28:00,
2013-10-14 09:43:00,55.5,48.0,30.30,NE,44,1.0,3.0,76,0.00,,,0.00,weatherlink.com 1.10,2013-10-14 14:43:00,
2013-10-14 09:58:00,56.4,48.0,30.30,NE,44,0.0,3.0,74,0.00,,,0.00,weatherlink.com 1.10,2013-10-14 14:58:00,
2013-10-14 10:13:00,57.3,49.0,30.30,NE,44,1.0,2.0,73,0.00,,,0.00,weatherlink.com 1.10,2013-10-14 15:13:00,
2013-10-14 10:28:00,58.1,50.0,30.30,NE,44,0.0,2.0,74,0.00,,,0.00,weatherlink.com 1.10,2013-10-14 15:28:00,
2013-10-14 10:43:00,59.3,51.0,30.29,NE,44,0.0,3.0,74,0.00,,,0.00,weatherlink.com 1.10,2013-10-14 15:43:00,
2013-10-14 10:58:00,60.1,50.0,30.29,NE,39,0.0,3.0,70,0.00,,,0.00,weatherlink.com 1.10,2013-10-14 15:58:00,
2013-10-14 11:13:00,61.1,52.0,30.28,NE,40,0.0,3.0,71,0.00,,,0.00,weatherlink.com 1.10,2013-10-14 16:13:00,
2013-10-14 11:28:00,62.0,52.0,30.27,NE,40,2.0,3.0,71,0.00,,,0.00,weatherlink.com 1.10,2013-10-14 16:28:00,
2013-10-14 11:43:00,62.7,53.0,30.26,NE,40,0.0,2.0,71,0.00,,,0.00,weatherlink.com 1.10,2013-10-14 16:43:00,
2013-10-14 11:58:00,63.5,54.0,30.25,NE,40,1.0,2.0,70,0.00,,,0.00,weatherlink.com 1.10,2013-10-14 16:58:00,
2013-10-14 12:13:00,64.6,54.0,30.24,North,355,0.0,4.0,69,0.00,,,0.00,weatherlink.com 1.10,2013-10-14 17:13:00,
2013-10-14 12:28:00,65.5,54.0,30.23,ENE,57,0.0,3.0,67,0.00,,,0.00,weatherlink.com 1.10,2013-10-14 17:28:00,
2013-10-14 12:43:00,67.1,55.0,30.22,NE,40,0.0,3.0,66,0.00,,,0.00,weatherlink.com 1.10,2013-10-14 17:43:00,
2013-10-14 12:58:00,67.1,55.0,30.22,South,191,0.0,2.0,66,0.00,,,0.00,weatherlink.com 1.10,2013-10-14 17:58:00,
2013-10-14 13:13:00,67.6,55.0,30.21,SSE,152,1.0,4.0,65,0.00,,,0.00,weatherlink.com 1.10,2013-10-14 18:13:00,
2013-10-14 13:28:00,68.2,56.0,30.20,SSE,152,0.0,2.0,66,0.00,,,0.00,weatherlink.com 1.10,2013-10-14 18:28:00,
2013-10-14 13:43:00,69.0,57.0,30.19,SSE,152,0.0,3.0,65,0.00,,,0.00,weatherlink.com 1.10,2013-10-14 18:43:00,
2013-10-14 13:59:00,69.6,55.0,30.19,SSE,152,0.0,4.0,61,0.00,,,0.00,weatherlink.com 1.10,2013-10-14 18:59:00,
2013-10-14 14:14:00,69.9,58.0,30.18,NNE,23,0.0,2.0,67,0.00,,,0.00,weatherlink.com 1.10,2013-10-14 19:14:00,
2013-10-14 14:29:00,70.4,57.0,30.18,SSW,204,0.0,3.0,62,0.00,,,0.00,weatherlink.com 1.10,2013-10-14 19:29:00,
2013-10-14 14:44:00,70.6,57.0,30.17,SSE,167,0.0,3.0,63,0.00,,,0.00,weatherlink.com 1.10,2013-10-14 19:44:00,
2013-10-14 14:59:00,70.7,57.0,30.16,SSE,167,0.0,3.0,62,0.00,,,0.00,weatherlink.com 1.10,2013-10-14 19:59:00,
2013-10-14 15:14:00,70.2,58.0,30.16,SSE,167,0.0,3.0,66,0.00,,,0.00,weatherlink.com 1.10,2013-10-14 20:14:00,
2013-10-14 15:29:00,70.7,58.0,30.15,SSE,167,0.0,2.0,65,0.00,,,0.00,weatherlink.com 1.10,2013-10-14 20:29:00,
2013-10-14 15:44:00,70.9,58.0,30.15,SSE,167,0.0,2.0,64,0.00,,,0.00,weatherlink.com 1.10,2013-10-14 20:44:00,
2013-10-14 15:59:00,70.6,59.0,30.15,SSE,167,0.0,2.0,66,0.00,,,0.00,weatherlink.com 1.10,2013-10-14 20:59:00,
2013-10-14 16:14:00,70.3,58.0,30.14,SSE,166,0.0,2.0,66,0.00,,,0.00,weatherlink.com 1.10,2013-10-14 21:14:00,
2013-10-14 16:29:00,70.0,58.0,30.14,SSE,167,1.0,2.0,66,0.00,,,0.00,weatherlink.com 1.10,2013-10-14 21:29:00,
2013-10-14 16:44:00,69.3,59.0,30.14,SSE,167,0.0,2.0,69,0.00,,,0.00,weatherlink.com 1.10,2013-10-14 21:44:00,
2013-10-14 16:59:00,68.8,58.0,30.14,SSE,167,0.0,2.0,69,0.00,,,0.00,weatherlink.com 1.10,2013-10-14 21:59:00,
2013-10-14 17:14:00,68.6,58.0,30.14,SSE,167,0.0,1.0,70,0.00,,,0.00,weatherlink.com 1.10,2013-10-14 22:14:00,
2013-10-14 17:29:00,67.7,58.0,30.14,SSE,167,0.0,1.0,71,0.00,,,0.00,weatherlink.com 1.10,2013-10-14 22:29:00,
2013-10-14 17:44:00,67.1,58.0,30.14,SSE,167,0.0,0.0,73,0.00,,,0.00,weatherlink.com 1.10,2013-10-14 22:44:00,
2013-10-14 17:59:00,66.3,58.0,30.13,SSE,167,0.0,0.0,75,0.00,,,0.00,weatherlink.com 1.10,2013-10-14 22:59:00,
2013-10-14 18:14:00,65.5,58.0,30.13,SSE,167,0.0,0.0,76,0.00,,,0.00,weatherlink.com 1.10,2013-10-14 23:14:00,
2013-10-14 18:29:00,64.4,57.0,30.13,SSE,166,0.0,0.0,78,0.00,,,0.00,weatherlink.com 1.10,2013-10-14 23:29:00,
2013-10-14 18:44:00,63.1,57.0,30.13,SSE,166,0.0,0.0,81,0.00,,,0.00,weatherlink.com 1.10,2013-10-14 23:44:00,
2013-10-14 18:59:00,61.9,57.0,30.14,SSE,166,0.0,0.0,83,0.00,,,0.00,weatherlink.com 1.10,2013-10-14 23:59:00,
2013-10-14 19:14:00,60.5,56.0,30.14,SSE,166,0.0,0.0,85,0.00,,,0.00,weatherlink.com 1.10,2013-10-15 00:14:00,
2013-10-14 19:29:00,59.6,56.0,30.13,SSE,166,0.0,0.0,87,0.00,,,0.00,weatherlink.com 1.10,2013-10-15 00:29:00,
2013-10-14 19:44:00,59.0,56.0,30.13,SSE,166,0.0,0.0,88,0.00,,,0.00,weatherlink.com 1.10,2013-10-15 00:44:00,
2013-10-14 19:59:00,58.7,56.0,30.13,SSE,166,0.0,0.0,89,0.00,,,0.00,weatherlink.com 1.10,2013-10-15 00:59:00,
2013-10-14 20:14:00,58.7,56.0,30.13,SSE,166,0.0,0.0,89,0.00,,,0.00,weatherlink.com 1.10,2013-10-15 01:14:00,
2013-10-14 20:29:00,58.6,55.0,30.13,SSE,166,0.0,0.0,89,0.00,,,0.00,weatherlink.com 1.10,2013-10-15 01:29:00,
2013-10-14 20:44:00,58.4,55.0,30.13,SSE,166,0.0,0.0,89,0.00,,,0.00,weatherlink.com 1.10,2013-10-15 01:44:00,
2013-10-14 20:59:00,58.3,56.0,30.13,SSE,166,0.0,0.0,90,0.00,,,0.00,weatherlink.com 1.10,2013-10-15 01:59:00,
2013-10-14 21:14:00,58.4,56.0,30.13,SSE,166,0.0,0.0,90,0.00,,,0.00,weatherlink.com 1.10,2013-10-15 02:14:00,
2013-10-14 21:29:00,58.2,55.0,30.13,SSE,166,0.0,0.0,90,0.00,,,0.00,weatherlink.com 1.10,2013-10-15 02:29:00,
2013-10-14 21:44:00,57.8,55.0,30.12,SSE,166,0.0,0.0,91,0.00,,,0.00,weatherlink.com 1.10,2013-10-15 02:44:00,
2013-10-14 21:59:00,57.5,55.0,30.12,SSE,166,0.0,0.0,91,0.00,,,0.00,weatherlink.com 1.10,2013-10-15 02:59:00,
2013-10-14 22:14:00,57.3,55.0,30.12,SSE,166,0.0,0.0,91,0.00,,,0.00,weatherlink.com 1.10,2013-10-15 03:14:00,
2013-10-14 22:29:00,57.6,55.0,30.11,SSE,166,0.0,1.0,92,0.00,,,0.00,weatherlink.com 1.10,2013-10-15 03:29:00,
2013-10-14 22:44:00,57.9,55.0,30.11,SSE,166,0.0,0.0,91,0.00,,,0.00,weatherlink.com 1.10,2013-10-15 03:44:00,
2013-10-14 22:59:00,57.8,55.0,30.11,SSE,166,0.0,0.0,91,0.00,,,0.00,weatherlink.com 1.10,2013-10-15 03:59:00,
2013-10-14 23:14:00,57.9,55.0,30.11,SSE,166,0.0,0.0,91,0.00,,,0.00,weatherlink.com 1.10,2013-10-15 04:14:00,
2013-10-14 23:29:00,58.2,55.0,30.10,SSE,167,0.0,0.0,90,0.00,,,0.00,weatherlink.com 1.10,2013-10-15 04:29:00,
2013-10-14 23:44:00,58.2,55.0,30.09,SSE,166,0.0,0.0,90,0.00,,,0.00,weatherlink.com 1.10,2013-10-15 04:44:00,
2013-10-14 23:59:00,58.2,55.0,30.08,SSE,166,0.0,1.0,90,0.00,,,0.00,weatherlink.com 1.10,2013-10-15 04:59:00,